Time;durP1;ratioP1;P1;durP2;ratioP2;P2;SDS_P1;SDS_P2;PMS_P1;PMS_P2;Temp;Humidity;BMP_temperature;BMP_pressure;BME280_temperature;BME280_humidity;BME280_pressure;Samples;Min_cycle;Max_cycle;Signal;HPM_P1;HPM_P2
2023/07/07 00:02:13;;;;;;;;;;;22.20;50.80;;;;;;5043259;28;19924;-54
2023/07/07 00:04:39;;;;;;;;;;;22.20;50.80;;;;;;5056122;28;19950;-56
2023/07/07 00:07:06;;;;;;;;;;;22.20;50.80;;;;;;5041833;28;19921;-58
2023/07/07 00:09:33;;;;;;;;;;;22.20;50.80;;;;;;5055247;28;19921;-56
2023/07/07 00:12:00;;;;;;;;;;;22.20;50.80;;;;;;5041645;28;19927;-56
2023/07/07 00:14:30;;;;;;;;;;;22.20;50.80;;;;;;5036663;28;19960;-56
2023/07/07 00:17:01;;;;;;;;;;;22.20;50.80;;;;;;5043905;28;20019;-55
2023/07/07 00:19:32;;;;;;;;;;;22.20;50.80;;;;;;5043125;28;20012;-54
2023/07/07 00:21:59;;;;;;;;;;;22.20;50.70;;;;;;5041542;28;20284;-56
2023/07/07 00:24:26;;;;;;;;;;;22.20;50.70;;;;;;5058511;28;19947;-56
2023/07/07 00:26:53;;;;;;;;;;;22.20;50.70;;;;;;5044185;28;19931;-59
2023/07/07 00:29:20;;;;;;;;;;;22.10;50.60;;;;;;5038579;28;19993;-58
2023/07/07 00:31:49;;;;;;;;;;;22.20;50.60;;;;;;5061910;28;19920;-57
2023/07/07 00:34:16;;;;;;;;;;;22.20;50.60;;;;;;5050725;28;19947;-57
2023/07/07 00:36:43;;;;;;;;;;;22.10;50.50;;;;;;5048155;28;19934;-58
2023/07/07 00:39:10;;;;;;;;;;;22.20;50.60;;;;;;5067747;28;19986;-58
2023/07/07 00:41:39;;;;;;;;;;;22.10;50.50;;;;;;5047873;28;19961;-57
2023/07/07 00:44:06;;;;;;;;;;;22.20;50.60;;;;;;5059082;28;20019;-53
2023/07/07 00:46:34;;;;;;;;;;;22.10;50.50;;;;;;5066264;28;19921;-54
2023/07/07 00:49:03;;;;;;;;;;;22.10;50.50;;;;;;5044391;28;19927;-57
2023/07/07 00:51:31;;;;;;;;;;;22.10;50.50;;;;;;5043205;28;19925;-57
2023/07/07 00:53:58;;;;;;;;;;;22.10;50.50;;;;;;5045776;28;19921;-58
2023/07/07 00:56:26;;;;;;;;;;;22.10;50.50;;;;;;5044489;28;19925;-56
2023/07/07 00:58:53;;;;;;;;;;;22.10;50.50;;;;;;5049067;28;19921;-57
2023/07/07 01:01:21;;;;;;;;;;;22.10;50.50;;;;;;5045401;28;19971;-56
2023/07/07 01:03:49;;;;;;;;;;;22.10;50.40;;;;;;5050124;28;19920;-56
2023/07/07 01:06:23;;;;;;;;;;;22.10;50.40;;;;;;5048900;28;19921;-59
2023/07/07 01:08:52;;;;;;;;;;;22.10;50.30;;;;;;5045074;28;19920;-59
2023/07/07 01:11:22;;;;;;;;;;;22.10;50.30;;;;;;5047941;28;19928;-57
2023/07/07 01:13:50;;;;;;;;;;;22.10;50.30;;;;;;5041448;28;19968;-57
2023/07/07 01:16:17;;;;;;;;;;;22.00;50.30;;;;;;5043826;28;20190;-51
2023/07/07 01:18:47;;;;;;;;;;;22.10;50.30;;;;;;5061893;28;19939;-59
2023/07/07 01:21:15;;;;;;;;;;;22.10;50.30;;;;;;5042221;28;19921;-57
2023/07/07 01:23:57;;;;;;;;;;;22.10;50.30;;;;;;5038507;28;19931;-56
2023/07/07 01:26:52;;;;;;;;;;;22.00;50.10;;;;;;5041712;28;19921;-56
2023/07/07 01:29:33;;;;;;;;;;;22.00;50.10;;;;;;5014737;28;19920;-54
2023/07/07 01:32:02;;;;;;;;;;;22.00;50.10;;;;;;5028340;28;19933;-56
2023/07/07 01:34:28;;;;;;;;;;;22.00;50.10;;;;;;5036361;28;19971;-55
2023/07/07 01:36:55;;;;;;;;;;;22.00;50.00;;;;;;5047347;28;19924;-54
2023/07/07 01:39:22;;;;;;;;;;;22.00;50.00;;;;;;5042110;28;19921;-56
2023/07/07 01:41:53;;;;;;;;;;;22.00;50.50;;;;;;5043930;28;19932;-58
2023/07/07 01:44:22;;;;;;;;;;;22.00;49.90;;;;;;5043326;28;19933;-56
2023/07/07 01:46:49;;;;;;;;;;;22.00;49.90;;;;;;5043840;28;19937;-54
2023/07/07 01:49:19;;;;;;;;;;;22.00;49.90;;;;;;5045120;28;20307;-55
2023/07/07 01:51:47;;;;;;;;;;;22.00;49.80;;;;;;5059639;28;19974;-52
2023/07/07 01:54:14;;;;;;;;;;;22.00;49.80;;;;;;5042704;28;20270;-56
2023/07/07 01:56:41;;;;;;;;;;;22.00;49.80;;;;;;5039646;28;19955;-56
2023/07/07 01:59:08;;;;;;;;;;;22.00;49.80;;;;;;5042961;28;19939;-52
2023/07/07 02:01:34;;;;;;;;;;;22.00;49.80;;;;;;5041190;28;19928;-57
2023/07/07 02:04:01;;;;;;;;;;;22.00;49.80;;;;;;5041244;28;19932;-56
2023/07/07 02:06:29;;;;;;;;;;;22.00;49.70;;;;;;5045750;28;19998;-54
2023/07/07 02:08:56;;;;;;;;;;;22.00;49.20;;;;;;5040998;28;19933;-55
2023/07/07 02:11:23;;;;;;;;;;;22.00;49.60;;;;;;5041913;28;19921;-56
2023/07/07 02:13:50;;;;;;;;;;;22.00;49.60;;;;;;5040538;28;20314;-57
2023/07/07 02:16:16;;;;;;;;;;;21.90;49.50;;;;;;5040795;28;19920;-56
2023/07/07 02:18:48;;;;;;;;;;;21.90;49.50;;;;;;5056274;28;19925;-56
2023/07/07 02:21:16;;;;;;;;;;;22.00;49.60;;;;;;5040812;28;20051;-58
2023/07/07 02:23:44;;;;;;;;;;;22.00;49.50;;;;;;5058562;28;20293;-57
2023/07/07 02:26:11;;;;;;;;;;;22.00;49.50;;;;;;5039201;28;20017;-56
2023/07/07 02:28:37;;;;;;;;;;;22.00;49.50;;;;;;5060618;28;19975;-53
2023/07/07 02:31:04;;;;;;;;;;;21.90;49.30;;;;;;5059064;28;19927;-57
2023/07/07 02:33:32;;;;;;;;;;;21.90;49.30;;;;;;5059983;28;19920;-59
2023/07/07 02:36:01;;;;;;;;;;;21.90;49.30;;;;;;5055370;28;19921;-57
2023/07/07 02:38:28;;;;;;;;;;;21.90;49.30;;;;;;5038534;28;19921;-57
2023/07/07 02:40:56;;;;;;;;;;;21.90;49.20;;;;;;5037941;28;19921;-58
2023/07/07 02:43:22;;;;;;;;;;;21.90;49.20;;;;;;5039541;28;19951;-57
2023/07/07 02:45:49;;;;;;;;;;;21.90;49.20;;;;;;5058388;28;19937;-58
2023/07/07 02:48:17;;;;;;;;;;;21.90;49.20;;;;;;5041727;28;19920;-56
2023/07/07 02:50:43;;;;;;;;;;;21.90;49.20;;;;;;5038716;28;20359;-55
2023/07/07 02:53:10;;;;;;;;;;;21.90;49.10;;;;;;5040511;28;19924;-56
2023/07/07 02:55:37;;;;;;;;;;;21.90;49.10;;;;;;5036657;28;20355;-55
2023/07/07 02:58:05;;;;;;;;;;;21.90;49.10;;;;;;5042924;28;19920;-57
2023/07/07 03:00:32;;;;;;;;;;;21.90;49.10;;;;;;5037303;28;20374;-52
2023/07/07 03:02:58;;;;;;;;;;;21.90;49.10;;;;;;5040548;28;19920;-55
2023/07/07 03:05:26;;;;;;;;;;;21.90;49.10;;;;;;5041392;28;19932;-57
2023/07/07 03:07:52;;;;;;;;;;;21.90;49.10;;;;;;5060270;28;20366;-57
2023/07/07 03:10:19;;;;;;;;;;;21.90;49.00;;;;;;5055190;28;21021;-56
2023/07/07 03:12:46;;;;;;;;;;;21.90;49.00;;;;;;5038633;28;19927;-56
2023/07/07 03:15:14;;;;;;;;;;;21.90;49.00;;;;;;5058369;28;19920;-56
2023/07/07 03:17:41;;;;;;;;;;;21.90;49.00;;;;;;5040558;28;19924;-57
2023/07/07 03:20:09;;;;;;;;;;;21.90;49.00;;;;;;5040923;28;19928;-55
2023/07/07 03:22:35;;;;;;;;;;;21.90;49.00;;;;;;5057544;28;19950;-56
2023/07/07 03:25:02;;;;;;;;;;;21.80;48.90;;;;;;5055826;28;19920;-56
2023/07/07 03:27:30;;;;;;;;;;;21.80;48.90;;;;;;5038777;28;19921;-53
2023/07/07 03:29:56;;;;;;;;;;;21.80;48.90;;;;;;5040774;28;19959;-55
2023/07/07 03:32:25;;;;;;;;;;;21.80;48.90;;;;;;5039396;28;19936;-56
2023/07/07 03:34:51;;;;;;;;;;;21.80;48.90;;;;;;5057185;28;19994;-56
2023/07/07 03:37:19;;;;;;;;;;;21.80;48.90;;;;;;5038765;28;19928;-51
2023/07/07 03:39:46;;;;;;;;;;;21.80;48.90;;;;;;5040198;28;20015;-55
2023/07/07 03:42:12;;;;;;;;;;;21.80;48.90;;;;;;5037499;28;19925;-56
2023/07/07 03:44:39;;;;;;;;;;;21.80;48.90;;;;;;5043637;28;19990;-57
2023/07/07 03:47:06;;;;;;;;;;;21.80;48.90;;;;;;5041393;28;19927;-56
2023/07/07 03:49:34;;;;;;;;;;;21.80;49.50;;;;;;5039355;28;19925;-56
2023/07/07 03:52:01;;;;;;;;;;;21.80;48.90;;;;;;5041865;28;19924;-56
2023/07/07 03:54:28;;;;;;;;;;;21.80;48.90;;;;;;5057007;28;19966;-56
2023/07/07 03:56:54;;;;;;;;;;;21.80;48.90;;;;;;5035951;28;19936;-55
2023/07/07 03:59:21;;;;;;;;;;;21.80;48.90;;;;;;5041523;28;19963;-56
2023/07/07 04:01:48;;;;;;;;;;;21.80;48.90;;;;;;5035385;28;19983;-56
2023/07/07 04:04:15;;;;;;;;;;;21.80;48.90;;;;;;5039214;28;19920;-56
2023/07/07 04:06:43;;;;;;;;;;;21.80;48.90;;;;;;5039740;28;19925;-56
2023/07/07 04:09:10;;;;;;;;;;;21.70;48.90;;;;;;5037013;28;19928;-57
2023/07/07 04:11:36;;;;;;;;;;;21.70;49.00;;;;;;5054485;28;19952;-56
2023/07/07 04:14:03;;;;;;;;;;;21.70;49.00;;;;;;5038024;28;19931;-53
2023/07/07 04:16:30;;;;;;;;;;;21.70;49.00;;;;;;5036704;28;19935;-57
2023/07/07 04:18:57;;;;;;;;;;;21.70;49.10;;;;;;5039724;28;19970;-55
2023/07/07 04:21:24;;;;;;;;;;;21.80;49.20;;;;;;5038475;28;19931;-56
2023/07/07 04:23:53;;;;;;;;;;;21.70;49.10;;;;;;5042722;28;19935;-57
2023/07/07 04:26:20;;;;;;;;;;;21.80;49.30;;;;;;5057351;28;20278;-54
2023/07/07 04:28:46;;;;;;;;;;;21.80;49.30;;;;;;5037010;28;19928;-57
2023/07/07 04:31:13;;;;;;;;;;;21.80;49.30;;;;;;5037123;28;19969;-55
2023/07/07 04:33:40;;;;;;;;;;;21.70;49.30;;;;;;5037745;28;19925;-57
2023/07/07 04:36:08;;;;;;;;;;;21.80;49.40;;;;;;5040416;28;19974;-55
2023/07/07 04:38:35;;;;;;;;;;;21.80;49.40;;;;;;5056619;28;19940;-57
2023/07/07 04:41:07;;;;;;;;;;;21.80;49.40;;;;;;5038049;28;19951;-53
2023/07/07 04:43:34;;;;;;;;;;;21.80;49.40;;;;;;5052379;28;19920;-56
2023/07/07 04:46:01;;;;;;;;;;;21.80;49.40;;;;;;5035135;28;20749;-56
2023/07/07 04:48:28;;;;;;;;;;;21.70;49.30;;;;;;5038948;28;19921;-56
2023/07/07 04:50:57;;;;;;;;;;;21.80;49.50;;;;;;5037974;28;19920;-55
2023/07/07 04:53:23;;;;;;;;;;;21.80;49.40;;;;;;5060102;28;19924;-54
2023/07/07 04:55:50;;;;;;;;;;;21.80;49.50;;;;;;5051140;28;19920;-55
2023/07/07 04:58:19;;;;;;;;;;;21.80;49.50;;;;;;5037371;28;19924;-54
2023/07/07 05:00:46;;;;;;;;;;;21.80;49.50;;;;;;5033044;28;19967;-52
2023/07/07 05:03:12;;;;;;;;;;;21.80;49.50;;;;;;5053243;28;19920;-55
2023/07/07 05:05:39;;;;;;;;;;;21.70;49.40;;;;;;5038088;28;19947;-56
2023/07/07 05:08:06;;;;;;;;;;;21.80;49.50;;;;;;5039303;28;19938;-55
2023/07/07 05:10:33;;;;;;;;;;;21.70;49.40;;;;;;5036639;28;19921;-56
2023/07/07 05:13:00;;;;;;;;;;;21.80;49.50;;;;;;5054406;28;19921;-56
2023/07/07 05:15:30;;;;;;;;;;;21.80;49.50;;;;;;5036295;28;19943;-56
2023/07/07 05:17:57;;;;;;;;;;;21.80;49.50;;;;;;5033955;28;19921;-57
2023/07/07 05:20:23;;;;;;;;;;;21.80;49.50;;;;;;5040272;28;19920;-55
2023/07/07 05:22:50;;;;;;;;;;;21.80;49.50;;;;;;5037199;28;19936;-56
2023/07/07 05:25:17;;;;;;;;;;;21.80;49.60;;;;;;5041704;28;19928;-56
2023/07/07 05:27:44;;;;;;;;;;;21.80;49.60;;;;;;5041357;28;19943;-57
2023/07/07 05:30:11;;;;;;;;;;;21.80;49.60;;;;;;5044382;28;19970;-56
2023/07/07 05:32:39;;;;;;;;;;;21.80;49.60;;;;;;5034329;28;19925;-54
2023/07/07 05:35:06;;;;;;;;;;;21.80;49.60;;;;;;5034280;28;20256;-54
2023/07/07 05:37:33;;;;;;;;;;;21.80;49.60;;;;;;5033640;28;19926;-55
2023/07/07 05:40:00;;;;;;;;;;;21.80;49.70;;;;;;5047528;28;19965;-53
2023/07/07 05:42:28;;;;;;;;;;;21.70;49.60;;;;;;5035769;28;19927;-54
2023/07/07 05:44:55;;;;;;;;;;;21.80;49.70;;;;;;5026302;28;19955;-57
2023/07/07 05:47:21;;;;;;;;;;;21.80;49.70;;;;;;5052627;28;19925;-55
2023/07/07 05:49:54;;;;;;;;;;;21.80;49.70;;;;;;5038610;28;19947;-56
2023/07/07 05:52:21;;;;;;;;;;;21.80;49.80;;;;;;5057032;28;19924;-56
2023/07/07 05:54:48;;;;;;;;;;;21.80;49.80;;;;;;5032288;28;19986;-56
2023/07/07 05:57:14;;;;;;;;;;;21.80;49.80;;;;;;5042834;28;19947;-54
2023/07/07 05:59:41;;;;;;;;;;;21.80;49.80;;;;;;5040519;28;19943;-56
2023/07/07 06:02:10;;;;;;;;;;;21.80;49.80;;;;;;5033277;28;19925;-53
2023/07/07 06:04:36;;;;;;;;;;;21.80;49.80;;;;;;5040066;28;19924;-56
2023/07/07 06:07:05;;;;;;;;;;;21.80;49.90;;;;;;5033783;28;19932;-54
2023/07/07 06:09:32;;;;;;;;;;;21.80;49.80;;;;;;5045867;28;19921;-57
2023/07/07 06:11:59;;;;;;;;;;;21.80;49.90;;;;;;5051218;28;19921;-56
2023/07/07 06:14:25;;;;;;;;;;;21.80;49.90;;;;;;5032884;28;19971;-55
2023/07/07 06:16:52;;;;;;;;;;;21.80;49.90;;;;;;5033325;28;20355;-54
2023/07/07 06:19:19;;;;;;;;;;;21.90;49.90;;;;;;5031319;28;19928;-57
2023/07/07 06:21:45;;;;;;;;;;;21.90;49.90;;;;;;5033576;28;19925;-57
2023/07/07 06:24:13;;;;;;;;;;;21.90;50.10;;;;;;5058350;28;19921;-57
2023/07/07 06:26:40;;;;;;;;;;;21.90;50.70;;;;;;5044320;28;20378;-57
2023/07/07 06:29:07;;;;;;;;;;;21.90;51.00;;;;;;5039724;28;19962;-57
2023/07/07 06:31:34;;;;;;;;;;;21.80;50.90;;;;;;5044805;28;19920;-58
2023/07/07 06:34:00;;;;;;;;;;;21.90;51.20;;;;;;5045351;28;19921;-58
2023/07/07 06:36:27;;;;;;;;;;;21.90;51.40;;;;;;5042693;28;20134;-58
2023/07/07 06:38:54;;;;;;;;;;;21.80;51.40;;;;;;5042645;28;19928;-57
2023/07/07 06:41:22;;;;;;;;;;;21.80;51.50;;;;;;5043006;28;19971;-56
2023/07/07 06:43:50;;;;;;;;;;;21.80;51.50;;;;;;5042647;28;19933;-57
2023/07/07 06:46:16;;;;;;;;;;;21.80;51.60;;;;;;5038737;28;19921;-55
2023/07/07 06:48:43;;;;;;;;;;;21.80;51.80;;;;;;5040291;28;19925;-57
2023/07/07 06:51:10;;;;;;;;;;;21.70;51.80;;;;;;5062915;28;20024;-58
2023/07/07 06:53:37;;;;;;;;;;;21.80;51.90;;;;;;5054760;28;20224;-58
2023/07/07 06:56:04;;;;;;;;;;;21.70;51.80;;;;;;5063339;28;19924;-58
2023/07/07 06:58:33;;;;;;;;;;;21.70;51.90;;;;;;5057125;28;19939;-58
2023/07/07 07:01:00;;;;;;;;;;;21.70;51.80;;;;;;5043808;28;19973;-57
2023/07/07 07:03:27;;;;;;;;;;;21.70;51.80;;;;;;5056224;28;19925;-57
2023/07/07 07:05:54;;;;;;;;;;;21.70;51.90;;;;;;5046048;28;19974;-58
2023/07/07 07:08:21;;;;;;;;;;;21.70;52.00;;;;;;5036780;28;19924;-56
2023/07/07 07:10:47;;;;;;;;;;;21.70;52.00;;;;;;5055663;28;19921;-55
2023/07/07 07:13:14;;;;;;;;;;;21.70;52.00;;;;;;5038409;28;20038;-56
2023/07/07 07:15:42;;;;;;;;;;;21.70;51.90;;;;;;5035759;28;20008;-56
2023/07/07 07:18:09;;;;;;;;;;;21.70;51.90;;;;;;5042097;28;20279;-58
2023/07/07 07:20:36;;;;;;;;;;;21.70;51.80;;;;;;5036549;28;19925;-57
2023/07/07 07:23:03;;;;;;;;;;;21.70;51.70;;;;;;5035836;28;20355;-60
2023/07/07 07:25:30;;;;;;;;;;;21.70;51.70;;;;;;5036479;28;19928;-58
2023/07/07 07:27:56;;;;;;;;;;;21.70;51.80;;;;;;5041906;28;19974;-58
2023/07/07 07:30:23;;;;;;;;;;;21.70;51.80;;;;;;5038743;28;19924;-58
2023/07/07 07:32:51;;;;;;;;;;;21.80;51.80;;;;;;5057607;28;19927;-57
2023/07/07 07:35:18;;;;;;;;;;;21.70;51.60;;;;;;5035651;28;19920;-58
2023/07/07 07:37:45;;;;;;;;;;;21.80;51.60;;;;;;5035960;28;19963;-58
2023/07/07 07:40:12;;;;;;;;;;;21.80;51.50;;;;;;5057928;28;20005;-57
2023/07/07 07:42:38;;;;;;;;;;;21.80;51.30;;;;;;5035179;28;19921;-58
2023/07/07 07:45:06;;;;;;;;;;;21.80;51.20;;;;;;5039872;28;19924;-58
2023/07/07 07:47:32;;;;;;;;;;;21.80;51.10;;;;;;5032525;28;19978;-57
2023/07/07 07:50:00;;;;;;;;;;;21.80;51.00;;;;;;5038507;28;19920;-58
2023/07/07 07:52:27;;;;;;;;;;;21.80;50.80;;;;;;5029355;28;19924;-56
2023/07/07 07:54:54;;;;;;;;;;;21.80;50.80;;;;;;5033517;28;19924;-58
2023/07/07 07:57:21;;;;;;;;;;;21.80;50.70;;;;;;5057165;28;19921;-56
2023/07/07 07:59:49;;;;;;;;;;;21.90;50.50;;;;;;5037391;28;19920;-57
2023/07/07 08:02:16;;;;;;;;;;;21.90;50.10;;;;;;5038435;28;19988;-56
2023/07/07 08:04:43;;;;;;;;;;;21.90;49.90;;;;;;5036194;28;19928;-57
2023/07/07 08:07:11;;;;;;;;;;;21.90;49.90;;;;;;5039602;28;19991;-56
2023/07/07 08:09:38;;;;;;;;;;;21.90;49.80;;;;;;5034382;28;20313;-61
2023/07/07 08:12:05;;;;;;;;;;;21.90;49.80;;;;;;5037845;28;19986;-58
2023/07/07 08:14:32;;;;;;;;;;;21.90;49.70;;;;;;5040131;28;19975;-58
2023/07/07 08:17:04;;;;;;;;;;;21.90;49.80;;;;;;5060891;28;19986;-58
2023/07/07 08:19:35;;;;;;;;;;;21.90;49.70;;;;;;5038983;28;19979;-57
2023/07/07 08:22:03;;;;;;;;;;;21.90;49.60;;;;;;5042582;28;19960;-58
2023/07/07 08:24:33;;;;;;;;;;;21.90;49.70;;;;;;5039086;28;20240;-58
2023/07/07 08:27:02;;;;;;;;;;;22.00;49.80;;;;;;5040845;28;20651;-58
2023/07/07 08:29:29;;;;;;;;;;;22.00;49.70;;;;;;5039572;28;19920;-58
2023/07/07 08:31:55;;;;;;;;;;;22.00;49.70;;;;;;5057108;28;19948;-58
2023/07/07 08:34:22;;;;;;;;;;;22.00;49.60;;;;;;5038898;28;19921;-58
2023/07/07 08:36:49;;;;;;;;;;;22.00;49.50;;;;;;5042706;28;19921;-57
2023/07/07 08:39:16;;;;;;;;;;;22.00;49.50;;;;;;5038390;28;19969;-58
2023/07/07 08:41:46;;;;;;;;;;;22.00;49.40;;;;;;5040974;28;19924;-55
2023/07/07 08:44:14;;;;;;;;;;;22.00;49.40;;;;;;5033869;28;19970;-58
2023/07/07 08:46:42;;;;;;;;;;;22.00;49.40;;;;;;5038751;28;19921;-58
2023/07/07 08:49:09;;;;;;;;;;;22.00;49.40;;;;;;5040231;28;19955;-58
2023/07/07 08:51:37;;;;;;;;;;;22.10;49.40;;;;;;5058603;28;20153;-58
2023/07/07 08:54:06;;;;;;;;;;;22.10;49.30;;;;;;5027550;28;19920;-58
2023/07/07 08:56:34;;;;;;;;;;;22.10;49.30;;;;;;5042314;28;19927;-59
2023/07/07 08:59:05;;;;;;;;;;;22.10;49.10;;;;;;5045133;28;19985;-58
2023/07/07 09:01:42;;;;;;;;;;;22.10;49.10;;;;;;5045767;28;19983;-58
2023/07/07 09:04:12;;;;;;;;;;;22.20;49.20;;;;;;5053671;28;19925;-57
2023/07/07 09:06:43;;;;;;;;;;;22.10;49.10;;;;;;5045699;28;19920;-58
2023/07/07 09:09:12;;;;;;;;;;;22.20;49.10;;;;;;5038169;28;19973;-57
2023/07/07 09:11:42;;;;;;;;;;;22.20;49.00;;;;;;5044319;28;19940;-57
2023/07/07 09:14:11;;;;;;;;;;;22.20;49.10;;;;;;5041664;28;19921;-57
2023/07/07 09:16:38;;;;;;;;;;;22.20;49.00;;;;;;5043244;28;19925;-57
2023/07/07 09:19:06;;;;;;;;;;;22.20;48.90;;;;;;5036434;28;20274;-57
2023/07/07 09:21:34;;;;;;;;;;;22.20;48.90;;;;;;5045523;28;20379;-58
2023/07/07 09:24:04;;;;;;;;;;;22.20;48.80;;;;;;5044682;28;19920;-58
2023/07/07 09:26:31;;;;;;;;;;;22.20;48.90;;;;;;5039555;28;20196;-62
2023/07/07 09:28:58;;;;;;;;;;;22.20;48.90;;;;;;5044659;28;20351;-60
2023/07/07 09:31:28;;;;;;;;;;;22.20;48.80;;;;;;5063821;28;19971;-58
2023/07/07 09:33:55;;;;;;;;;;;22.30;48.70;;;;;;5040710;28;19924;-57
2023/07/07 09:36:23;;;;;;;;;;;22.30;48.70;;;;;;5057436;28;19920;-56
2023/07/07 09:38:53;;;;;;;;;;;22.30;48.60;;;;;;5044647;28;19940;-59
2023/07/07 09:41:21;;;;;;;;;;;22.30;48.50;;;;;;5040657;28;19929;-59
2023/07/07 09:43:51;;;;;;;;;;;22.30;48.60;;;;;;5039514;28;19970;-57
2023/07/07 09:46:19;;;;;;;;;;;22.30;48.60;;;;;;5062403;28;19920;-58
2023/07/07 09:48:48;;;;;;;;;;;22.30;48.50;;;;;;5043747;28;19982;-58
2023/07/07 09:51:17;;;;;;;;;;;22.30;48.50;;;;;;5045009;28;19921;-56
2023/07/07 09:53:43;;;;;;;;;;;22.30;48.50;;;;;;5038370;28;19932;-57
2023/07/07 09:56:10;;;;;;;;;;;22.30;48.40;;;;;;5062710;28;19932;-58
2023/07/07 09:58:38;;;;;;;;;;;22.30;48.30;;;;;;5057459;28;19921;-58
2023/07/07 10:01:04;;;;;;;;;;;22.40;48.30;;;;;;5048421;28;19939;-57
2023/07/07 10:03:33;;;;;;;;;;;22.40;47.90;;;;;;5031075;28;20355;-57
2023/07/07 10:06:02;;;;;;;;;;;22.40;47.20;;;;;;5042101;28;19921;-55
2023/07/07 10:08:29;;;;;;;;;;;22.40;46.40;;;;;;5059140;28;19927;-56
2023/07/07 10:10:57;;;;;;;;;;;22.40;45.80;;;;;;5039726;28;19921;-58
2023/07/07 10:13:24;;;;;;;;;;;22.40;45.80;;;;;;5037976;28;19921;-57
2023/07/07 10:15:52;;;;;;;;;;;22.40;46.00;;;;;;5043211;28;20370;-58
2023/07/07 10:18:21;;;;;;;;;;;22.40;46.30;;;;;;5043705;28;19947;-58
2023/07/07 10:20:48;;;;;;;;;;;22.40;46.40;;;;;;5060993;28;19920;-59
2023/07/07 10:23:16;;;;;;;;;;;22.40;46.40;;;;;;5041476;28;19929;-57
2023/07/07 10:25:43;;;;;;;;;;;22.40;46.50;;;;;;5034782;28;19940;-57
2023/07/07 10:28:11;;;;;;;;;;;22.40;46.60;;;;;;5057068;28;19928;-57
2023/07/07 10:30:38;;;;;;;;;;;22.40;46.70;;;;;;5043153;28;19927;-60
2023/07/07 10:33:05;;;;;;;;;;;22.40;46.70;;;;;;5045774;28;19921;-56
2023/07/07 10:35:32;;;;;;;;;;;22.40;46.80;;;;;;5038440;28;19921;-58
2023/07/07 10:38:01;;;;;;;;;;;22.50;47.00;;;;;;5042946;28;19924;-57
2023/07/07 10:40:30;;;;;;;;;;;22.50;47.00;;;;;;5049437;28;19924;-53
2023/07/07 10:42:57;;;;;;;;;;;22.50;47.00;;;;;;5020253;28;19925;-58
2023/07/07 10:45:23;;;;;;;;;;;22.50;47.00;;;;;;5033967;28;19925;-60
2023/07/07 10:47:50;;;;;;;;;;;22.50;47.00;;;;;;5035939;28;19927;-58
2023/07/07 10:50:18;;;;;;;;;;;22.50;46.50;;;;;;5038469;28;19978;-58
2023/07/07 10:52:59;;;;;;;;;;;22.50;46.00;;;;;;5044034;28;19920;-58
2023/07/07 10:55:27;;;;;;;;;;;22.50;45.50;;;;;;5033629;28;19933;-62
2023/07/07 10:58:00;;;;;;;;;;;22.50;45.10;;;;;;5043354;28;19925;-56
2023/07/07 11:00:32;;;;;;;;;;;22.60;44.70;;;;;;5038834;28;20207;-57
2023/07/07 11:03:06;;;;;;;;;;;22.60;44.80;;;;;;5034878;28;19921;-61
2023/07/07 11:05:35;;;;;;;;;;;22.50;44.50;;;;;;5039912;28;20055;-59
2023/07/07 11:08:09;;;;;;;;;;;22.50;44.70;;;;;;5062453;28;19931;-57
2023/07/07 11:10:41;;;;;;;;;;;22.60;45.10;;;;;;5039209;28;19939;-64
2023/07/07 11:13:11;;;;;;;;;;;22.60;44.90;;;;;;5040103;28;20395;-57
2023/07/07 11:15:40;;;;;;;;;;;22.60;44.60;;;;;;5042855;28;19931;-55
2023/07/07 11:18:10;;;;;;;;;;;22.60;44.30;;;;;;5037227;28;20379;-55
2023/07/07 11:20:40;;;;;;;;;;;22.60;44.50;;;;;;5047261;28;19929;-56
2023/07/07 11:23:12;;;;;;;;;;;22.60;44.70;;;;;;5051443;28;20175;-58
2023/07/07 11:25:41;;;;;;;;;;;22.70;44.90;;;;;;5036665;28;19943;-58
2023/07/07 11:28:13;;;;;;;;;;;22.70;45.00;;;;;;5053794;28;19925;-59
2023/07/07 11:30:42;;;;;;;;;;;22.70;45.10;;;;;;5033280;28;19971;-59
2023/07/07 11:33:12;;;;;;;;;;;22.70;45.30;;;;;;5050527;28;20038;-57
2023/07/07 11:35:43;;;;;;;;;;;22.70;45.20;;;;;;5037331;28;19946;-56
2023/07/07 11:38:37;;;;;;;;;;;22.80;45.40;;;;;;5034296;28;19925;-58
2023/07/07 11:41:08;;;;;;;;;;;22.70;45.40;;;;;;5008796;28;19932;-57
2023/07/07 11:43:52;;;;;;;;;;;22.70;45.50;;;;;;5059363;28;19929;-57
2023/07/07 11:46:26;;;;;;;;;;;22.80;45.60;;;;;;5041194;28;20330;-61
2023/07/07 11:48:55;;;;;;;;;;;22.80;45.70;;;;;;5056430;28;19921;-57
2023/07/07 11:51:29;;;;;;;;;;;22.80;45.70;;;;;;5034718;28;20375;-57
2023/07/07 11:54:14;;;;;;;;;;;22.80;45.80;;;;;;5031268;28;19928;-57
2023/07/07 11:56:48;;;;;;;;;;;22.80;45.80;;;;;;5036290;28;19925;-56
2023/07/07 11:59:22;;;;;;;;;;;22.90;45.80;;;;;;5031757;28;19933;-58
2023/07/07 12:01:50;;;;;;;;;;;22.90;45.80;;;;;;5037028;28;19928;-57
2023/07/07 12:04:19;;;;;;;;;;;22.90;45.80;;;;;;5034999;28;20317;-57
2023/07/07 12:06:46;;;;;;;;;;;22.90;45.80;;;;;;5041126;28;19931;-58
2023/07/07 12:09:14;;;;;;;;;;;22.90;45.80;;;;;;5049013;28;19940;-56
2023/07/07 12:11:42;;;;;;;;;;;22.90;45.80;;;;;;5035260;28;19959;-57
2023/07/07 12:14:14;;;;;;;;;;;22.90;46.00;;;;;;5034501;28;19992;-57
2023/07/07 12:16:43;;;;;;;;;;;22.90;45.90;;;;;;5035698;28;19928;-57
2023/07/07 12:19:18;;;;;;;;;;;22.90;45.90;;;;;;5038117;28;19925;-57
2023/07/07 12:21:44;;;;;;;;;;;22.90;45.90;;;;;;5034626;28;19927;-57
2023/07/07 12:24:13;;;;;;;;;;;22.90;45.80;;;;;;5035634;28;19924;-57
2023/07/07 12:26:40;;;;;;;;;;;22.90;45.80;;;;;;5033150;28;19921;-58
2023/07/07 12:29:07;;;;;;;;;;;22.90;45.80;;;;;;5035431;28;19921;-57
2023/07/07 12:31:33;;;;;;;;;;;22.90;45.90;;;;;;5042478;28;19921;-58
2023/07/07 12:34:13;;;;;;;;;;;22.90;45.90;;;;;;5035180;28;19943;-56
2023/07/07 12:36:40;;;;;;;;;;;23.00;46.00;;;;;;5036722;28;19933;-59
2023/07/07 12:39:07;;;;;;;;;;;23.00;46.00;;;;;;5034824;28;19940;-59
2023/07/07 12:41:35;;;;;;;;;;;23.00;46.00;;;;;;5047966;28;19921;-57
2023/07/07 12:44:03;;;;;;;;;;;23.00;45.90;;;;;;5032744;28;19967;-58
2023/07/07 12:46:31;;;;;;;;;;;23.00;46.00;;;;;;5038812;28;19959;-56
2023/07/07 12:48:58;;;;;;;;;;;23.00;46.00;;;;;;5033399;28;19975;-60
2023/07/07 12:51:27;;;;;;;;;;;23.00;45.90;;;;;;5054589;28;20011;-59
2023/07/07 12:53:54;;;;;;;;;;;23.00;45.90;;;;;;5034083;28;19925;-60
2023/07/07 12:56:21;;;;;;;;;;;23.00;45.90;;;;;;5059776;28;19944;-59
2023/07/07 12:58:48;;;;;;;;;;;23.00;45.80;;;;;;5036017;28;19921;-58
2023/07/07 13:01:35;;;;;;;;;;;23.00;45.80;;;;;;5034374;28;19924;-58
2023/07/07 13:04:03;;;;;;;;;;;23.00;45.80;;;;;;5051518;28;20397;-58
2023/07/07 13:06:37;;;;;;;;;;;23.10;45.90;;;;;;5035218;28;19944;-56
2023/07/07 13:09:05;;;;;;;;;;;23.00;45.80;;;;;;5035351;28;19928;-57
2023/07/07 13:11:33;;;;;;;;;;;23.10;45.90;;;;;;5037945;28;20143;-56
2023/07/07 13:13:59;;;;;;;;;;;23.10;45.70;;;;;;5053362;28;19966;-59
2023/07/07 13:16:26;;;;;;;;;;;23.10;45.40;;;;;;5033566;28;19921;-57
2023/07/07 13:18:53;;;;;;;;;;;23.10;45.10;;;;;;5038928;28;19966;-56
2023/07/07 13:21:21;;;;;;;;;;;23.10;45.00;;;;;;5054472;28;19933;-56
2023/07/07 13:23:50;;;;;;;;;;;23.10;44.90;;;;;;5050667;28;20039;-59
2023/07/07 13:26:24;;;;;;;;;;;23.10;44.90;;;;;;5052693;28;19925;-58
2023/07/07 13:28:50;;;;;;;;;;;23.10;45.00;;;;;;5037391;28;20029;-56
2023/07/07 13:31:17;;;;;;;;;;;23.10;45.10;;;;;;5037414;28;19921;-57
2023/07/07 13:33:44;;;;;;;;;;;23.10;45.10;;;;;;5049997;28;19932;-57
2023/07/07 13:36:11;;;;;;;;;;;23.10;45.10;;;;;;5061115;28;19952;-56
2023/07/07 13:38:44;;;;;;;;;;;23.10;45.10;;;;;;5035063;28;19928;-56
2023/07/07 13:41:13;;;;;;;;;;;23.10;45.10;;;;;;5032438;28;19928;-58
2023/07/07 13:43:40;;;;;;;;;;;23.10;45.00;;;;;;5033847;28;19925;-58
2023/07/07 13:46:10;;;;;;;;;;;23.10;45.00;;;;;;5035459;28;19921;-57
2023/07/07 13:48:39;;;;;;;;;;;23.20;45.10;;;;;;5043205;28;19921;-57
2023/07/07 13:51:10;;;;;;;;;;;23.20;44.90;;;;;;5035184;28;19928;-57
2023/07/07 13:53:37;;;;;;;;;;;23.20;44.80;;;;;;5050924;28;19925;-58
2023/07/07 13:56:05;;;;;;;;;;;23.20;44.80;;;;;;5036648;28;19927;-57
2023/07/07 13:58:33;;;;;;;;;;;23.20;44.70;;;;;;5038847;28;19920;-57
2023/07/07 14:01:01;;;;;;;;;;;23.20;44.70;;;;;;5038608;28;19957;-58
2023/07/07 14:03:28;;;;;;;;;;;23.20;44.60;;;;;;5032615;28;19921;-58
2023/07/07 14:05:57;;;;;;;;;;;23.20;44.50;;;;;;5038176;28;20363;-56
2023/07/07 14:08:24;;;;;;;;;;;23.20;44.50;;;;;;5034805;28;19924;-57
2023/07/07 14:10:51;;;;;;;;;;;23.20;44.50;;;;;;5022082;28;19921;-58
2023/07/07 14:13:19;;;;;;;;;;;23.20;44.50;;;;;;5041120;28;19928;-58
2023/07/07 14:15:48;;;;;;;;;;;23.30;44.60;;;;;;5038952;28;20006;-56
2023/07/07 14:18:15;;;;;;;;;;;23.20;44.50;;;;;;5037745;28;19925;-58
2023/07/07 14:20:42;;;;;;;;;;;23.20;44.50;;;;;;5038053;28;20017;-57
2023/07/07 14:23:10;;;;;;;;;;;23.20;44.70;;;;;;5036130;28;19944;-57